Aviation Digital Data Service (ADDS)

Output produced by METARs form (1421 UTC 27 November 2021)
found at http://aviationweather.gov/metar/data/
 
METAR text: EYKA 271420Z VRB02KT 3600 -RASN BR OVC003 00/M01 Q0991
Conditions at: EYKA (KAUNAS , LT) observed 1420 UTC 27 November 2021
Temperature: 0.0°C (32°F)
Dewpoint: -1.0°C (30°F) [RH = 93%]
Pressure (altimeter): 29.26 inches Hg (991.0 mb)
Winds: variable direction winds at 2 MPH (2 knots; 1.0 m/s)
Visibility: 2.24 miles (3.60 km)
Ceiling: 300 feet AGL
Clouds: overcast cloud deck at 300 feet AGL
Weather: -RA -SN BR  (light rain, light snow, mist)

METAR text: EYKA 271350Z 35003KT 310V020 2900 RASN BR OVC003 00/M01 Q0991
Conditions at: EYKA (KAUNAS , LT) observed 1350 UTC 27 November 2021
Temperature: 0.0°C (32°F)
Dewpoint: -1.0°C (30°F) [RH = 93%]
Pressure (altimeter): 29.26 inches Hg (991.0 mb)
Winds: from the N (350 degrees) at 3 MPH (3 knots; 1.5 m/s)
Visibility: 1.80 miles (2.90 km)
Ceiling: 300 feet AGL
Clouds: overcast cloud deck at 300 feet AGL
Weather: RA SN BR  (moderate rain, moderate snow, mist)

METAR text: EYKA 271320Z 36004KT 320V040 4200 -RASN BR OVC003 00/M01 Q0991
Conditions at: EYKA (KAUNAS , LT) observed 1320 UTC 27 November 2021
Temperature: 0.0°C (32°F)
Dewpoint: -1.0°C (30°F) [RH = 93%]
Pressure (altimeter): 29.26 inches Hg (991.0 mb)
Winds: from the N (360 degrees) at 5 MPH (4 knots; 2.1 m/s)
Visibility: 2.61 miles (4.20 km)
Ceiling: 300 feet AGL
Clouds: overcast cloud deck at 300 feet AGL
Weather: -RA -SN BR  (light rain, light snow, mist)

METAR text: EYKA 271250Z 36005KT 2900 SNRA BR OVC003 00/M01 Q0990
Conditions at: EYKA (KAUNAS , LT) observed 1250 UTC 27 November 2021
Temperature: 0.0°C (32°F)
Dewpoint: -1.0°C (30°F) [RH = 93%]
Pressure (altimeter): 29.23 inches Hg (990.0 mb)
Winds: from the N (360 degrees) at 6 MPH (5 knots; 2.6 m/s)
Visibility: 1.80 miles (2.90 km)
Ceiling: 300 feet AGL
Clouds: overcast cloud deck at 300 feet AGL
Weather: SN RA BR  (moderate snow, moderate rain, mist)

Forecast for: EYKA (KAUNAS , LT)
Text: TAF EYKA 271101Z 2712/2812 VRB05KT 3000 SNRA OVC005
Forecast period: 1200 to 2000 UTC 27 November 2021
Forecast type: FROM: standard forecast or significant change
Winds: variable direction winds at 6 MPH (5 knots; 2.6 m/s)
Visibility: 1.86 miles (2.99 km)
Ceiling: 500 feet AGL
Clouds: overcast cloud deck at 500 feet AGL
Weather: SN RA  (moderate snow, moderate rain)
Text: TEMPO 2712/2720 1500 BKN002
Forecast period: 1200 to 2000 UTC 27 November 2021
Forecast type: TEMPORARY: The following changes expected for less than half the time period
Visibility: 0.93 miles (1.50 km)
Ceiling: 200 feet AGL
Clouds: broken clouds at 200 feet AGL
Weather: no significant weather forecast for this period
Text: BECMG 2720/2722 24010KT 6000 NSW
Forecast period: 2000 UTC 27 November 2021 to 1200 UTC 28 November 2021
Forecast type: BECOMING: Conditions expected to become as follows by 2200 UTC 27 November 2021
Winds: from the WSW (240 degrees) at 12 MPH (10 knots; 5.1 m/s)
Visibility: 4 miles (6 km)
Ceiling: 500 feet AGL
Clouds: overcast cloud deck at 500 feet AGL
Weather: NSW  (no significant weather)
Text: TEMPO 2800/2806 3000 DZ BR BKN002
Forecast period: 0000 to 0600 UTC 28 November 2021
Forecast type: TEMPORARY: The following changes expected for less than half the time period
Visibility: 1.86 miles (2.99 km)
Ceiling: 200 feet AGL
Clouds: broken clouds at 200 feet AGL
Weather: DZ BR  (moderate drizzle, mist)